createdAt,value
2022-12-22T00:00:14.924Z,97.79
2022-12-22T00:01:14.915Z,97.79
2022-12-22T00:02:15.173Z,97.79
2022-12-22T00:03:15.198Z,97.79
2022-12-22T00:04:15.078Z,97.69
2022-12-22T00:05:14.853Z,97.79
2022-12-22T00:06:14.843Z,97.69
2022-12-22T00:07:14.830Z,97.74
2022-12-22T00:08:14.827Z,97.74
2022-12-22T00:09:14.807Z,97.74
2022-12-22T00:10:14.802Z,97.74
2022-12-22T00:11:14.804Z,97.74
2022-12-22T00:12:14.771Z,97.74
2022-12-22T00:13:14.769Z,97.74
2022-12-22T00:14:14.757Z,97.74
2022-12-22T00:15:14.747Z,97.63
2022-12-22T00:16:14.816Z,97.63
2022-12-22T00:17:14.777Z,97.63
2022-12-22T00:18:14.707Z,97.74
2022-12-22T00:19:14.728Z,97.63
2022-12-22T00:20:18.528Z,97.63
2022-12-22T00:21:14.683Z,97.63
2022-12-22T00:22:14.673Z,97.63
2022-12-22T00:23:14.655Z,97.68
2022-12-22T00:24:14.647Z,97.68
2022-12-22T00:25:14.633Z,97.78
2022-12-22T00:26:14.623Z,97.78
2022-12-22T00:27:14.611Z,97.78
2022-12-22T00:28:14.601Z,97.78
2022-12-22T00:29:14.588Z,97.78
2022-12-22T00:30:14.574Z,97.78
2022-12-22T00:31:14.659Z,97.88
2022-12-22T00:32:14.571Z,97.88
2022-12-22T00:33:14.544Z,97.88
2022-12-22T00:34:14.539Z,97.99
2022-12-22T00:35:14.549Z,97.99
2022-12-22T00:36:14.514Z,97.99
2022-12-22T00:37:14.512Z,97.99
2022-12-22T00:38:14.488Z,97.99
2022-12-22T00:39:14.483Z,97.99
2022-12-22T00:40:14.459Z,97.99
2022-12-22T00:41:14.455Z,98.09
2022-12-22T00:42:14.447Z,98.09
2022-12-22T00:43:14.435Z,98.19
2022-12-22T00:44:14.425Z,98.09
2022-12-22T00:45:14.410Z,98.09
2022-12-22T00:46:14.557Z,98.09
2022-12-22T00:47:14.380Z,98.09
2022-12-22T00:48:14.383Z,98.09
2022-12-22T00:49:14.367Z,98.09
2022-12-22T00:50:14.356Z,98.09
2022-12-22T00:51:14.377Z,98.09
2022-12-22T00:52:14.334Z,98.09
2022-12-22T00:53:14.330Z,98.09
2022-12-22T00:54:14.318Z,98.09
2022-12-22T00:55:14.304Z,97.99
2022-12-22T00:56:14.283Z,97.99
2022-12-22T00:57:14.274Z,97.99
2022-12-22T00:58:14.263Z,98.05
2022-12-22T00:59:14.251Z,97.94
2022-12-22T01:00:14.249Z,97.94
2022-12-22T01:01:14.298Z,97.84
2022-12-22T01:02:14.502Z,97.84
2022-12-22T01:03:14.448Z,97.84
2022-12-22T01:04:14.205Z,97.88
2022-12-22T01:05:14.197Z,97.88
2022-12-22T01:06:14.184Z,97.78
2022-12-22T01:07:14.192Z,97.74
2022-12-22T01:08:14.156Z,97.78
2022-12-22T01:09:14.137Z,97.68
2022-12-22T01:10:14.131Z,97.68
2022-12-22T01:11:14.120Z,97.68
2022-12-22T01:12:14.120Z,97.58
2022-12-22T01:13:14.093Z,97.58
2022-12-22T01:14:14.084Z,97.58
2022-12-22T01:15:14.072Z,97.47
2022-12-22T01:16:14.212Z,97.47
2022-12-22T01:17:14.045Z,97.47
2022-12-22T01:18:14.035Z,97.47
2022-12-22T01:19:14.030Z,97.47
2022-12-22T01:20:14.014Z,97.47
2022-12-22T01:21:14.007Z,97.47
2022-12-22T01:22:13.999Z,97.47
2022-12-22T01:23:14.004Z,97.47
2022-12-22T01:24:13.971Z,97.47
2022-12-22T01:25:13.956Z,97.37
2022-12-22T01:26:13.965Z,97.47
2022-12-22T01:27:13.930Z,97.37
2022-12-22T01:28:13.920Z,97.37
2022-12-22T01:29:13.909Z,97.27
2022-12-22T01:30:13.913Z,97.37
2022-12-22T01:31:13.965Z,97.27
2022-12-22T01:32:13.873Z,97.37
2022-12-22T01:33:13.867Z,97.27
2022-12-22T01:34:13.865Z,97.27
2022-12-22T01:35:13.840Z,97.27
2022-12-22T01:36:13.829Z,97.27
2022-12-22T01:37:13.823Z,97.27
2022-12-22T01:38:13.821Z,97.27
2022-12-22T01:39:13.820Z,97.27
2022-12-22T01:40:13.795Z,97.27
2022-12-22T01:41:13.782Z,97.27
2022-12-22T01:42:13.769Z,97.27
2022-12-22T01:43:13.760Z,97.16
2022-12-22T01:44:13.744Z,97.16
2022-12-22T01:45:13.735Z,97.16
2022-12-22T01:46:13.784Z,97.16
2022-12-22T01:47:13.714Z,97.12
2022-12-22T01:48:13.693Z,97.02
2022-12-22T01:49:13.693Z,97.02
2022-12-22T01:50:13.669Z,96.91
2022-12-22T01:51:13.673Z,96.91
2022-12-22T01:52:13.647Z,97.02
2022-12-22T01:53:19.661Z,96.81
2022-12-22T01:54:13.630Z,96.71
2022-12-22T01:55:13.655Z,96.71
2022-12-22T01:56:13.601Z,96.71
2022-12-22T01:57:13.590Z,96.60
2022-12-22T01:58:13.580Z,96.60
2022-12-22T01:59:13.640Z,96.50
2022-12-22T02:00:13.571Z,96.55
2022-12-22T02:01:13.608Z,96.55
2022-12-22T02:02:13.686Z,96.55
2022-12-22T02:03:13.570Z,96.55
2022-12-22T02:04:13.517Z,96.55
2022-12-22T02:05:13.518Z,96.55
2022-12-22T02:06:13.496Z,96.55
2022-12-22T02:07:13.482Z,96.55
2022-12-22T02:08:13.483Z,96.65
2022-12-22T02:09:13.457Z,96.65
2022-12-22T02:10:13.462Z,96.50
2022-12-22T02:11:13.452Z,96.55
2022-12-22T02:12:13.426Z,96.50
2022-12-22T02:13:13.420Z,96.55
2022-12-22T02:14:13.406Z,96.40
2022-12-22T02:15:13.393Z,96.40
2022-12-22T02:16:13.447Z,96.40
2022-12-22T02:17:13.375Z,96.30
2022-12-22T02:18:13.359Z,96.30
2022-12-22T02:19:13.361Z,96.34
2022-12-22T02:20:13.354Z,96.34
2022-12-22T02:21:13.382Z,96.34
2022-12-22T02:22:13.326Z,96.40
2022-12-22T02:23:13.373Z,96.40
2022-12-22T02:24:13.306Z,96.30
2022-12-22T02:25:13.273Z,96.40
2022-12-22T02:26:13.293Z,96.40
2022-12-22T02:27:13.281Z,96.30
2022-12-22T02:28:13.245Z,96.30
2022-12-22T02:29:13.256Z,96.30
2022-12-22T02:30:13.230Z,96.30
2022-12-22T02:31:13.319Z,96.30
2022-12-22T02:32:13.199Z,96.19
2022-12-22T02:33:13.184Z,96.19
2022-12-22T02:34:13.171Z,96.19
2022-12-22T02:35:13.166Z,96.09
2022-12-22T02:36:13.158Z,96.09
2022-12-22T02:37:13.143Z,96.09
2022-12-22T02:38:13.147Z,96.09
2022-12-22T02:39:13.128Z,96.09
2022-12-22T02:40:13.103Z,96.09
2022-12-22T02:41:13.094Z,96.09
2022-12-22T02:42:13.087Z,95.98
2022-12-22T02:43:13.145Z,95.98
2022-12-22T02:44:13.056Z,95.98
2022-12-22T02:45:13.044Z,95.98
2022-12-22T02:46:13.082Z,95.98
2022-12-22T02:47:13.045Z,95.98
2022-12-22T02:48:13.012Z,95.88
2022-12-22T02:49:12.998Z,95.88
2022-12-22T02:50:12.992Z,95.88
2022-12-22T02:51:12.989Z,95.88
2022-12-22T02:52:12.979Z,95.88
2022-12-22T02:53:12.959Z,95.88
2022-12-22T02:54:12.950Z,95.88
2022-12-22T02:55:12.953Z,95.88
2022-12-22T02:56:12.927Z,95.84
2022-12-22T02:57:12.916Z,95.78
2022-12-22T02:58:12.918Z,95.78
2022-12-22T02:59:12.920Z,95.78
2022-12-22T03:00:12.889Z,95.78
2022-12-22T03:01:12.866Z,95.78
2022-12-22T03:02:13.003Z,95.73
2022-12-22T03:03:13.054Z,95.78
2022-12-22T03:04:12.841Z,95.78
2022-12-22T03:05:12.824Z,95.67
2022-12-22T03:06:12.823Z,95.67
2022-12-22T03:07:12.819Z,95.67
2022-12-22T03:08:12.812Z,95.63
2022-12-22T03:09:12.790Z,95.53
2022-12-22T03:10:12.761Z,95.53
2022-12-22T03:11:12.749Z,95.53
2022-12-22T03:12:12.760Z,95.53
2022-12-22T03:13:12.754Z,95.53
2022-12-22T03:14:12.744Z,95.53
2022-12-22T03:15:12.734Z,95.53
2022-12-22T03:16:12.820Z,95.42
2022-12-22T03:17:12.691Z,95.42
2022-12-22T03:18:12.683Z,95.33
2022-12-22T03:19:12.688Z,95.42
2022-12-22T03:20:12.667Z,95.33
2022-12-22T03:21:12.644Z,95.33
2022-12-22T03:22:12.647Z,95.33
2022-12-22T03:23:12.623Z,95.22
2022-12-22T03:24:12.616Z,95.22
2022-12-22T03:25:12.598Z,95.22
2022-12-22T03:26:12.588Z,95.12
2022-12-22T03:27:12.577Z,95.22
2022-12-22T03:28:12.573Z,95.12
2022-12-22T03:29:12.561Z,95.12
2022-12-22T03:30:12.550Z,95.22
2022-12-22T03:31:12.650Z,95.12
2022-12-22T03:32:12.517Z,95.12
2022-12-22T03:33:12.508Z,95.22
2022-12-22T03:34:12.495Z,95.12
2022-12-22T03:35:12.502Z,95.12
2022-12-22T03:36:12.466Z,95.12
2022-12-22T03:37:12.475Z,95.01
2022-12-22T03:38:12.464Z,95.01
2022-12-22T03:39:12.457Z,95.01
2022-12-22T03:40:12.426Z,95.01
2022-12-22T03:41:12.416Z,95.01
2022-12-22T03:42:12.411Z,95.01
2022-12-22T03:43:12.396Z,95.01
2022-12-22T03:44:12.384Z,95.01
2022-12-22T03:45:12.369Z,95.01
2022-12-22T03:46:12.357Z,95.01
2022-12-22T03:47:12.440Z,95.12
2022-12-22T03:48:12.334Z,95.12
2022-12-22T03:49:12.600Z,95.12
2022-12-22T03:50:12.326Z,95.12
2022-12-22T03:51:12.300Z,95.22
2022-12-22T03:52:12.292Z,95.22
2022-12-22T03:53:12.281Z,95.22
2022-12-22T03:54:12.266Z,95.22
2022-12-22T03:55:12.254Z,95.22
2022-12-22T03:56:12.245Z,95.22
2022-12-22T03:57:12.227Z,95.22
2022-12-22T03:58:12.220Z,95.22
2022-12-22T03:59:12.200Z,95.22
2022-12-22T04:00:12.207Z,95.22
2022-12-22T04:01:12.267Z,95.22
2022-12-22T04:02:12.325Z,95.22
2022-12-22T04:03:12.381Z,95.22
2022-12-22T04:04:12.144Z,95.22
2022-12-22T04:05:12.145Z,95.33
2022-12-22T04:06:12.124Z,95.22
2022-12-22T04:07:12.119Z,95.33
2022-12-22T04:08:12.113Z,95.33
2022-12-22T04:09:12.093Z,95.28
2022-12-22T04:10:12.080Z,95.38
2022-12-22T04:11:12.081Z,95.38
2022-12-22T04:12:12.064Z,95.38
2022-12-22T04:13:12.069Z,95.38
2022-12-22T04:14:12.040Z,95.38
2022-12-22T04:15:12.035Z,95.38
2022-12-22T04:16:12.075Z,95.38
2022-12-22T04:17:12.026Z,95.38
2022-12-22T04:18:11.993Z,95.48
2022-12-22T04:19:12.009Z,95.48
2022-12-22T04:20:11.967Z,95.59
2022-12-22T04:21:11.966Z,95.59
2022-12-22T04:22:11.948Z,95.63
2022-12-22T04:23:11.946Z,95.69
2022-12-22T04:24:11.930Z,95.80
2022-12-22T04:25:11.919Z,95.80
2022-12-22T04:26:11.914Z,95.80
2022-12-22T04:27:11.886Z,95.80
2022-12-22T04:28:11.881Z,95.89
2022-12-22T04:29:11.864Z,95.89
2022-12-22T04:30:11.866Z,96.05
2022-12-22T04:31:11.840Z,96.14
2022-12-22T04:32:11.880Z,96.10
2022-12-22T04:33:11.824Z,96.14
2022-12-22T04:34:11.812Z,96.20
2022-12-22T04:35:11.820Z,96.25
2022-12-22T04:36:11.792Z,96.20
2022-12-22T04:37:17.256Z,96.20
2022-12-22T04:38:11.762Z,96.31
2022-12-22T04:39:11.759Z,96.41
2022-12-22T04:40:11.759Z,96.41
2022-12-22T04:41:11.738Z,96.41
2022-12-22T04:42:11.731Z,96.41
2022-12-22T04:43:11.711Z,96.41
2022-12-22T04:44:11.703Z,96.41
2022-12-22T04:45:11.703Z,96.41
2022-12-22T04:46:11.764Z,96.41
2022-12-22T04:47:11.674Z,96.41
2022-12-22T04:48:11.652Z,96.41
2022-12-22T04:49:11.639Z,96.41
2022-12-22T04:50:11.640Z,96.41
2022-12-22T04:51:11.661Z,96.31
2022-12-22T04:52:11.602Z,96.31
2022-12-22T04:53:11.605Z,96.31
2022-12-22T04:54:11.598Z,96.31
2022-12-22T04:55:11.581Z,96.41
2022-12-22T04:56:11.560Z,96.41
2022-12-22T04:57:11.546Z,96.41
2022-12-22T04:58:11.536Z,96.41
2022-12-22T04:59:11.529Z,96.52
2022-12-22T05:00:11.530Z,96.52
2022-12-22T05:01:11.547Z,96.52
2022-12-22T05:02:11.627Z,96.61
2022-12-22T05:03:11.593Z,96.61
2022-12-22T05:04:11.479Z,96.72
2022-12-22T05:05:11.461Z,96.72
2022-12-22T05:06:11.464Z,96.72
2022-12-22T05:07:11.465Z,96.72
2022-12-22T05:08:11.420Z,96.82
2022-12-22T05:09:11.430Z,96.82
2022-12-22T05:10:11.402Z,96.82
2022-12-22T05:11:11.390Z,96.82
2022-12-22T05:12:11.381Z,96.92
2022-12-22T05:13:11.375Z,96.82
2022-12-22T05:14:11.359Z,96.82
2022-12-22T05:15:11.362Z,96.92
2022-12-22T05:16:11.437Z,96.92
2022-12-22T05:17:11.473Z,96.82
2022-12-22T05:18:11.307Z,96.82
2022-12-22T05:19:11.293Z,96.82
2022-12-22T05:20:11.292Z,96.82
2022-12-22T05:21:11.284Z,96.82
2022-12-22T05:22:11.273Z,96.82
2022-12-22T05:23:11.277Z,96.72
2022-12-22T05:24:11.242Z,96.67
2022-12-22T05:25:11.226Z,96.57
2022-12-22T05:26:11.235Z,96.52
2022-12-22T05:27:11.207Z,96.52
2022-12-22T05:28:11.208Z,96.52
2022-12-22T05:29:11.183Z,96.52
2022-12-22T05:30:11.177Z,96.52
2022-12-22T05:31:11.248Z,96.41
2022-12-22T05:32:11.161Z,96.41
2022-12-22T05:33:11.148Z,96.41
2022-12-22T05:34:11.137Z,96.41
2022-12-22T05:35:11.126Z,96.41
2022-12-22T05:36:11.106Z,96.41
2022-12-22T05:37:11.140Z,96.41
2022-12-22T05:38:11.130Z,96.41
2022-12-22T05:39:11.099Z,96.41
2022-12-22T05:40:11.060Z,96.41
2022-12-22T05:41:11.056Z,96.52
2022-12-22T05:42:11.035Z,96.47
2022-12-22T05:43:11.048Z,96.52
2022-12-22T05:44:11.012Z,96.47
2022-12-22T05:45:11.012Z,96.36
2022-12-22T05:46:11.143Z,96.47
2022-12-22T05:47:10.985Z,96.47
2022-12-22T05:48:10.967Z,96.47
2022-12-22T05:49:11.013Z,96.47
2022-12-22T05:50:10.951Z,96.36
2022-12-22T05:51:10.971Z,96.36
2022-12-22T05:52:10.921Z,96.47
2022-12-22T05:53:10.909Z,96.47
2022-12-22T05:54:10.904Z,96.47
2022-12-22T05:55:10.925Z,96.47
2022-12-22T05:56:10.892Z,96.47
2022-12-22T05:57:10.867Z,96.47
2022-12-22T05:58:10.861Z,96.47
2022-12-22T05:59:10.841Z,96.57
2022-12-22T06:00:10.835Z,96.57
2022-12-22T06:01:10.826Z,96.57
2022-12-22T06:02:10.984Z,96.57
2022-12-22T06:03:10.966Z,96.57
2022-12-22T06:04:11.063Z,96.57
2022-12-22T06:05:10.789Z,96.57
2022-12-22T06:06:10.768Z,96.57
2022-12-22T06:07:10.762Z,96.57
2022-12-22T06:08:10.738Z,96.57
2022-12-22T06:09:10.736Z,96.57
2022-12-22T06:10:12.637Z,96.53
2022-12-22T06:11:10.729Z,96.42
2022-12-22T06:12:10.697Z,96.53
2022-12-22T06:13:10.684Z,96.42
2022-12-22T06:14:10.675Z,96.42
2022-12-22T06:15:10.670Z,96.42
2022-12-22T06:16:10.668Z,96.42
2022-12-22T06:17:10.633Z,96.42
2022-12-22T06:18:10.627Z,96.42
2022-12-22T06:19:10.609Z,96.42
2022-12-22T06:20:10.598Z,96.42
2022-12-22T06:21:10.602Z,96.42
2022-12-22T06:22:10.575Z,96.42
2022-12-22T06:23:10.565Z,96.47
2022-12-22T06:24:10.564Z,96.47
2022-12-22T06:25:17.180Z,96.42
2022-12-22T06:26:10.530Z,96.42
2022-12-22T06:27:10.543Z,96.53
2022-12-22T06:28:10.512Z,96.42
2022-12-22T06:29:10.503Z,96.57
2022-12-22T06:30:10.483Z,96.57
2022-12-22T06:31:10.526Z,96.57
2022-12-22T06:32:10.471Z,96.53
2022-12-22T06:33:10.463Z,96.53
2022-12-22T06:34:10.454Z,96.53
2022-12-22T06:35:10.431Z,96.53
2022-12-22T06:36:10.418Z,96.53
2022-12-22T06:37:10.405Z,96.53
2022-12-22T06:38:10.399Z,96.53
2022-12-22T06:39:10.383Z,96.63
2022-12-22T06:40:10.376Z,96.53
2022-12-22T06:41:10.372Z,96.53
2022-12-22T06:42:10.362Z,96.57
2022-12-22T06:43:10.896Z,96.67
2022-12-22T06:44:10.328Z,96.67
2022-12-22T06:45:10.328Z,96.67
2022-12-22T06:46:10.347Z,96.73
2022-12-22T06:47:10.301Z,96.63
2022-12-22T06:48:10.294Z,96.63
2022-12-22T06:49:10.270Z,96.67
2022-12-22T06:50:10.260Z,96.63
2022-12-22T06:51:10.260Z,96.73
2022-12-22T06:52:10.242Z,96.63
2022-12-22T06:53:10.223Z,96.73
2022-12-22T06:54:10.214Z,96.73
2022-12-22T06:55:10.213Z,96.63
2022-12-22T06:56:10.189Z,96.63
2022-12-22T06:57:10.194Z,96.63
2022-12-22T06:58:10.184Z,96.73
2022-12-22T06:59:12.188Z,96.63
2022-12-22T07:00:10.143Z,96.73
2022-12-22T07:01:12.146Z,96.73
2022-12-22T07:02:10.346Z,96.73
2022-12-22T07:03:10.271Z,96.73
2022-12-22T07:04:12.208Z,96.83
2022-12-22T07:05:10.087Z,96.83
2022-12-22T07:06:10.084Z,96.83
2022-12-22T07:07:12.069Z,96.83
2022-12-22T07:08:10.053Z,96.73
2022-12-22T07:09:10.042Z,96.73
2022-12-22T07:10:10.044Z,96.73
2022-12-22T07:11:10.023Z,96.73
2022-12-22T07:12:10.019Z,96.83
2022-12-22T07:13:10.000Z,96.83
2022-12-22T07:14:09.989Z,96.83
2022-12-22T07:15:10.009Z,96.83
2022-12-22T07:16:10.065Z,96.83
2022-12-22T07:17:09.960Z,96.83
2022-12-22T07:18:09.950Z,96.83
2022-12-22T07:19:09.954Z,96.83
2022-12-22T07:20:09.935Z,96.94
2022-12-22T07:21:09.914Z,96.94
2022-12-22T07:22:09.916Z,96.94
2022-12-22T07:23:09.886Z,96.94
2022-12-22T07:24:09.882Z,96.94
2022-12-22T07:25:09.871Z,96.94
2022-12-22T07:26:09.862Z,96.94
2022-12-22T07:27:09.854Z,96.94
2022-12-22T07:28:13.639Z,96.83
2022-12-22T07:29:09.830Z,96.94
2022-12-22T07:30:09.815Z,96.94
2022-12-22T07:31:09.855Z,96.94
2022-12-22T07:32:09.793Z,96.94
2022-12-22T07:33:09.783Z,96.83
2022-12-22T07:34:09.771Z,96.94
2022-12-22T07:35:09.752Z,96.94
2022-12-22T07:36:09.743Z,96.83
2022-12-22T07:37:09.734Z,96.94
2022-12-22T07:38:09.733Z,96.94
2022-12-22T07:39:09.707Z,96.83
2022-12-22T07:40:09.709Z,96.83
2022-12-22T07:41:09.695Z,96.83
2022-12-22T07:42:09.680Z,96.83
2022-12-22T07:43:09.684Z,96.83
2022-12-22T07:44:09.662Z,96.83
2022-12-22T07:45:09.649Z,96.94
2022-12-22T07:46:09.698Z,96.94
2022-12-22T07:47:09.648Z,96.83
2022-12-22T07:48:09.609Z,96.83
2022-12-22T07:49:09.597Z,96.79
2022-12-22T07:50:09.803Z,96.79
2022-12-22T07:51:09.609Z,96.69
2022-12-22T07:52:09.564Z,96.69
2022-12-22T07:53:09.559Z,96.58
2022-12-22T07:54:09.550Z,96.58
2022-12-22T07:55:09.550Z,96.63
2022-12-22T07:56:09.516Z,96.73
2022-12-22T07:57:09.531Z,96.73
2022-12-22T07:58:09.510Z,96.73
2022-12-22T07:59:09.491Z,96.73
2022-12-22T08:00:09.478Z,96.73
2022-12-22T08:01:09.475Z,96.83
2022-12-22T08:02:09.519Z,96.83
2022-12-22T08:03:09.705Z,96.94
2022-12-22T08:04:09.481Z,96.94
2022-12-22T08:05:09.537Z,97.04
2022-12-22T08:06:09.411Z,96.94
2022-12-22T08:07:09.402Z,96.94
2022-12-22T08:08:09.381Z,97.04
2022-12-22T08:09:09.385Z,97.04
2022-12-22T08:10:09.371Z,97.14
2022-12-22T08:11:09.359Z,97.04
2022-12-22T08:12:09.361Z,97.04
2022-12-22T08:13:09.403Z,96.94
2022-12-22T08:14:09.340Z,97.04
2022-12-22T08:15:09.307Z,97.04
2022-12-22T08:16:09.368Z,97.04
2022-12-22T08:17:09.291Z,97.14
2022-12-22T08:18:09.277Z,97.14
2022-12-22T08:19:09.295Z,97.14
2022-12-22T08:20:09.267Z,97.14
2022-12-22T08:21:09.234Z,97.14
2022-12-22T08:22:09.229Z,97.25
2022-12-22T08:23:09.227Z,97.14
2022-12-22T08:24:09.210Z,97.14
2022-12-22T08:25:09.191Z,97.14
2022-12-22T08:26:09.215Z,97.25
2022-12-22T08:27:09.185Z,97.14
2022-12-22T08:28:09.156Z,97.14
2022-12-22T08:29:09.149Z,97.14
2022-12-22T08:30:09.163Z,97.14
2022-12-22T08:31:09.206Z,97.04
2022-12-22T08:32:09.203Z,97.04
2022-12-22T08:33:09.129Z,97.14
2022-12-22T08:34:09.129Z,97.14
2022-12-22T08:35:09.104Z,97.04
2022-12-22T08:36:09.071Z,97.04
2022-12-22T08:37:09.056Z,97.14
2022-12-22T08:38:09.066Z,97.14
2022-12-22T08:39:09.037Z,97.14
2022-12-22T08:40:09.028Z,97.14
2022-12-22T08:41:09.011Z,97.14
2022-12-22T08:42:09.013Z,97.14
2022-12-22T08:43:08.995Z,97.14
2022-12-22T08:44:08.984Z,97.10
2022-12-22T08:45:08.966Z,97.10
2022-12-22T08:46:08.968Z,97.00
2022-12-22T08:47:16.470Z,97.10
2022-12-22T08:48:08.934Z,97.00
2022-12-22T08:49:08.920Z,97.00
2022-12-22T08:50:08.918Z,96.89
2022-12-22T08:51:08.926Z,97.04
2022-12-22T08:52:14.317Z,97.04
2022-12-22T08:53:23.452Z,97.04
2022-12-22T08:54:08.881Z,97.04
2022-12-22T08:55:08.856Z,97.14
2022-12-22T08:56:08.861Z,97.14
2022-12-22T08:57:08.840Z,97.20
2022-12-22T08:58:08.829Z,97.10
2022-12-22T08:59:08.816Z,97.10
2022-12-22T09:00:08.805Z,97.25
2022-12-22T09:01:08.922Z,97.20
2022-12-22T09:02:08.890Z,97.30
2022-12-22T09:03:08.928Z,97.30
2022-12-22T09:04:08.753Z,97.30
2022-12-22T09:05:08.753Z,97.30
2022-12-22T09:06:08.740Z,97.30
2022-12-22T09:07:08.756Z,97.30
2022-12-22T09:08:08.709Z,97.41
2022-12-22T09:09:08.701Z,97.41
2022-12-22T09:10:08.689Z,97.41
2022-12-22T09:11:08.679Z,97.41
2022-12-22T09:12:08.672Z,97.51
2022-12-22T09:13:08.668Z,97.61
2022-12-22T09:14:08.651Z,97.51
2022-12-22T09:15:08.629Z,97.51
2022-12-22T09:16:08.767Z,97.51
2022-12-22T09:17:08.611Z,97.51
2022-12-22T09:18:08.603Z,97.51
2022-12-22T09:19:08.643Z,97.51
2022-12-22T09:20:08.585Z,97.51
2022-12-22T09:21:08.572Z,97.61
2022-12-22T09:22:08.560Z,97.51
2022-12-22T09:23:08.579Z,97.61
2022-12-22T09:24:08.534Z,97.57
2022-12-22T09:25:08.528Z,97.61
2022-12-22T09:26:08.513Z,97.61
2022-12-22T09:27:08.501Z,97.61
2022-12-22T09:28:08.507Z,97.71
2022-12-22T09:29:08.485Z,97.71
2022-12-22T09:30:08.473Z,97.71
2022-12-22T09:31:08.455Z,97.71
2022-12-22T09:32:08.510Z,97.67
2022-12-22T09:33:08.430Z,97.61
2022-12-22T09:34:11.997Z,97.71
2022-12-22T09:35:08.409Z,97.77
2022-12-22T09:36:08.408Z,97.77
2022-12-22T09:37:08.381Z,97.67
2022-12-22T09:38:08.379Z,97.67
2022-12-22T09:39:08.404Z,97.77
2022-12-22T09:40:08.361Z,97.77
2022-12-22T09:41:08.353Z,97.77
2022-12-22T09:42:08.335Z,97.77
2022-12-22T09:43:08.320Z,97.77
2022-12-22T09:44:08.311Z,97.77
2022-12-22T09:45:12.436Z,97.77
2022-12-22T09:46:08.384Z,97.77
2022-12-22T09:47:08.278Z,97.77
2022-12-22T09:48:08.265Z,97.77
2022-12-22T09:49:08.260Z,97.77
2022-12-22T09:50:08.236Z,97.63
2022-12-22T09:51:08.225Z,97.67
2022-12-22T09:52:08.220Z,97.67
2022-12-22T09:53:08.210Z,97.67
2022-12-22T09:54:08.210Z,97.67
2022-12-22T09:55:08.219Z,97.67
2022-12-22T09:56:08.176Z,97.67
2022-12-22T09:57:08.170Z,97.67
2022-12-22T09:58:11.516Z,97.67
2022-12-22T09:59:08.142Z,97.67
2022-12-22T10:00:08.136Z,97.67
2022-12-22T10:01:08.165Z,97.77
2022-12-22T10:02:08.173Z,97.72
2022-12-22T10:03:08.181Z,97.72
2022-12-22T10:04:08.088Z,97.63
2022-12-22T10:05:08.084Z,97.72
2022-12-22T10:06:08.063Z,97.63
2022-12-22T10:07:08.048Z,97.63
2022-12-22T10:08:08.044Z,97.52
2022-12-22T10:09:28.850Z,97.52
2022-12-22T10:10:08.025Z,97.63
2022-12-22T10:11:08.045Z,97.63
2022-12-22T10:12:07.995Z,97.52
2022-12-22T10:13:07.984Z,97.52
2022-12-22T10:14:07.967Z,97.52
2022-12-22T10:15:07.963Z,97.63
2022-12-22T10:16:08.004Z,97.52
2022-12-22T10:17:08.102Z,97.63
2022-12-22T10:18:07.943Z,97.63
2022-12-22T10:19:07.917Z,97.63
2022-12-22T10:20:07.905Z,97.52
2022-12-22T10:21:07.905Z,97.52
2022-12-22T10:22:07.882Z,97.52
2022-12-22T10:23:07.865Z,97.52
2022-12-22T10:24:07.855Z,97.52
2022-12-22T10:25:07.849Z,97.52
2022-12-22T10:27:07.849Z,97.52
2022-12-22T10:28:07.834Z,97.52
2022-12-22T10:29:07.863Z,97.52
2022-12-22T10:30:07.792Z,97.52
2022-12-22T10:31:07.798Z,97.52
2022-12-22T10:32:08.019Z,97.47
2022-12-22T10:33:07.755Z,97.47
2022-12-22T10:34:07.745Z,97.38
2022-12-22T10:35:07.729Z,97.38
2022-12-22T10:36:07.734Z,97.38
2022-12-22T10:37:07.720Z,97.38
2022-12-22T10:38:21.042Z,97.38
2022-12-22T10:39:07.683Z,97.38
2022-12-22T10:40:07.686Z,97.27
2022-12-22T10:41:07.664Z,97.17
2022-12-22T10:42:07.658Z,97.17
2022-12-22T10:43:07.670Z,97.17
2022-12-22T10:44:07.635Z,97.07
2022-12-22T10:45:07.624Z,97.07
2022-12-22T10:46:07.728Z,97.07
2022-12-22T10:47:12.253Z,97.07
2022-12-22T10:48:07.584Z,97.07
2022-12-22T10:49:07.574Z,97.07
2022-12-22T10:50:07.567Z,97.07
2022-12-22T10:51:07.560Z,97.07
2022-12-22T10:52:07.537Z,97.02
2022-12-22T10:53:07.535Z,96.96
2022-12-22T10:54:07.528Z,96.86
2022-12-22T10:55:07.516Z,96.96
2022-12-22T10:56:07.500Z,96.96
2022-12-22T10:57:07.511Z,96.96
2022-12-22T10:58:07.469Z,96.92
2022-12-22T10:59:07.485Z,96.82
2022-12-22T11:00:07.447Z,96.82
2022-12-22T11:01:07.502Z,96.82
2022-12-22T11:02:07.815Z,96.82
2022-12-22T11:03:07.578Z,96.82
2022-12-22T11:04:07.508Z,96.71
2022-12-22T11:05:07.404Z,96.82
2022-12-22T11:06:07.398Z,96.82
2022-12-22T11:07:07.380Z,96.82
2022-12-22T11:08:07.369Z,96.82
2022-12-22T11:09:31.874Z,96.82
2022-12-22T11:10:07.340Z,96.71
2022-12-22T11:11:07.323Z,96.61
2022-12-22T11:12:07.321Z,96.71
2022-12-22T11:13:07.333Z,96.71
2022-12-22T11:14:07.322Z,96.71
2022-12-22T11:15:07.318Z,96.71
2022-12-22T11:16:07.284Z,96.71
2022-12-22T11:17:07.325Z,96.71
2022-12-22T11:18:07.247Z,96.71
2022-12-22T11:19:07.256Z,96.71
2022-12-22T11:20:07.253Z,96.51
2022-12-22T11:21:07.225Z,96.51
2022-12-22T11:22:07.204Z,96.51
2022-12-22T11:23:07.218Z,96.51
2022-12-22T11:24:07.186Z,96.51
2022-12-22T11:25:07.174Z,96.46
2022-12-22T11:26:07.163Z,96.46
2022-12-22T11:27:07.166Z,96.46
2022-12-22T11:28:07.148Z,96.36
2022-12-22T11:29:07.143Z,96.26
2022-12-22T11:30:07.139Z,96.26
2022-12-22T11:31:07.189Z,96.26
2022-12-22T11:32:07.097Z,96.16
2022-12-22T11:33:07.099Z,96.16
2022-12-22T11:34:07.069Z,96.16
2022-12-22T11:35:07.121Z,96.16
2022-12-22T11:36:07.050Z,96.16
2022-12-22T11:37:07.040Z,96.05
2022-12-22T11:38:07.027Z,95.95
2022-12-22T11:39:07.023Z,95.95
2022-12-22T11:40:07.006Z,95.95
2022-12-22T11:41:07.003Z,96.05
2022-12-22T11:42:06.980Z,95.95
2022-12-22T11:43:06.970Z,95.95
2022-12-22T11:44:06.954Z,95.85
2022-12-22T11:45:06.941Z,95.85
2022-12-22T11:46:07.065Z,95.85
2022-12-22T11:47:06.983Z,95.95
2022-12-22T11:48:06.913Z,96.05
2022-12-22T11:49:06.925Z,95.95
2022-12-22T11:51:02.054Z,95.95
2022-12-22T11:51:07.944Z,95.95
2022-12-22T11:52:06.869Z,95.91
2022-12-22T11:53:06.858Z,95.91
2022-12-22T11:54:10.898Z,95.80
2022-12-22T11:55:06.837Z,95.80
2022-12-22T11:56:06.830Z,95.80
2022-12-22T11:57:06.814Z,95.80
2022-12-22T11:58:06.800Z,95.80
2022-12-22T11:59:06.795Z,95.80
2022-12-22T12:00:06.788Z,95.80
2022-12-22T12:01:20.613Z,95.70
2022-12-22T12:02:06.828Z,95.70
2022-12-22T12:03:06.851Z,95.70
2022-12-22T12:04:06.882Z,95.80
2022-12-22T12:05:06.712Z,95.80
2022-12-22T12:06:06.735Z,95.70
2022-12-22T12:07:06.709Z,95.70
2022-12-22T12:08:06.684Z,95.70
2022-12-22T12:09:06.677Z,95.70
2022-12-22T12:10:06.663Z,95.80
2022-12-22T12:11:06.658Z,95.70
2022-12-22T12:12:06.638Z,95.70
2022-12-22T12:13:06.635Z,95.70
2022-12-22T12:14:06.622Z,95.70
2022-12-22T12:15:06.605Z,95.70
2022-12-22T12:16:06.657Z,95.70
2022-12-22T12:17:06.583Z,95.70
2022-12-22T12:18:06.573Z,95.70
2022-12-22T12:19:06.594Z,95.70
2022-12-22T12:20:06.553Z,95.70
2022-12-22T12:21:06.539Z,95.80
2022-12-22T12:22:06.520Z,95.80
2022-12-22T12:23:06.514Z,95.80
2022-12-22T12:24:06.507Z,95.76
2022-12-22T12:25:06.508Z,95.80
2022-12-22T12:26:06.478Z,95.80
2022-12-22T12:27:06.478Z,95.80
2022-12-22T12:28:06.459Z,95.80
2022-12-22T12:29:06.448Z,95.80
2022-12-22T12:30:36.903Z,95.91
2022-12-22T12:31:06.493Z,95.91
2022-12-22T12:32:06.513Z,96.01
2022-12-22T12:33:06.400Z,95.91
2022-12-22T12:34:06.401Z,95.91
2022-12-22T12:35:06.423Z,95.86
2022-12-22T12:36:06.369Z,95.86
2022-12-22T12:37:06.354Z,95.91
2022-12-22T12:38:06.353Z,95.91
2022-12-22T12:39:08.397Z,95.91
2022-12-22T12:40:06.344Z,95.86
2022-12-22T12:41:06.313Z,95.97
2022-12-22T12:42:06.301Z,95.86
2022-12-22T12:43:10.890Z,95.86
2022-12-22T12:44:06.275Z,95.86
2022-12-22T12:45:06.266Z,95.86
2022-12-22T12:46:06.314Z,95.97
2022-12-22T12:47:06.403Z,95.97
2022-12-22T12:48:06.225Z,95.97
2022-12-22T12:49:06.217Z,95.86
2022-12-22T12:50:06.224Z,95.97
2022-12-22T12:51:06.220Z,95.97
2022-12-22T12:52:06.186Z,95.97
2022-12-22T12:53:06.201Z,95.97